Time;durP1;ratioP1;P1;durP2;ratioP2;P2;SDS_P1;SDS_P2;PMS_P1;PMS_P2;Temp;Humidity;BMP_temperature;BMP_pressure;BME280_temperature;BME280_humidity;BME280_pressure;Samples;Min_cycle;Max_cycle;Signal;HPM_P1;HPM_P2
2021/06/04 00:00:36;;;;;;;12.18;7.18;;;;;;;;;;4924632;29;20036;-59
2021/06/04 00:03:08;;;;;;;12.70;6.90;;;;;;;;;;4923498;29;20052;-58
2021/06/04 00:05:38;;;;;;;11.75;7.13;;;;;;;;;;4923407;29;20039;-58
2021/06/04 00:08:05;;;;;;;12.15;7.40;;;;;;;;;;4925740;29;20551;-57
2021/06/04 00:10:38;;;;;;;13.83;6.83;;;;;;;;;;4925072;29;20040;-58
2021/06/04 00:13:15;;;;;;;12.63;7.55;;;;;;;;;;4927719;29;20631;-56
2021/06/04 00:15:42;;;;;;;16.77;6.70;;;;;;;;;;4921803;29;20051;-58
2021/06/04 00:18:10;;;;;;;13.98;6.53;;;;;;;;;;4928214;29;20071;-59
2021/06/04 00:20:36;;;;;;;11.43;7.15;;;;;;;;;;4926356;29;20511;-58
2021/06/04 00:23:04;;;;;;;17.13;6.97;;;;;;;;;;4927548;29;20065;-57
2021/06/04 00:25:31;;;;;;;10.15;7.60;;;;;;;;;;4930247;29;20107;-58
2021/06/04 00:27:57;;;;;;;15.65;7.28;;;;;;;;;;4925965;28;20066;-58
2021/06/04 00:30:24;;;;;;;13.57;6.95;;;;;;;;;;4928626;29;20048;-58
2021/06/04 00:32:51;;;;;;;10.52;6.78;;;;;;;;;;4923565;29;20063;-59
2021/06/04 00:35:19;;;;;;;12.23;6.78;;;;;;;;;;4904109;29;20103;-58
2021/06/04 00:37:46;;;;;;;10.27;6.50;;;;;;;;;;4922259;29;20315;-58
2021/06/04 00:40:19;;;;;;;9.15;7.20;;;;;;;;;;4929338;29;20138;-59
2021/06/04 00:42:47;;;;;;;10.15;7.25;;;;;;;;;;4929277;29;20518;-58
2021/06/04 00:45:17;;;;;;;9.55;6.78;;;;;;;;;;4923821;29;20381;-58
2021/06/04 00:47:44;;;;;;;10.70;7.07;;;;;;;;;;4924667;29;20132;-57
2021/06/04 00:50:14;;;;;;;11.75;7.53;;;;;;;;;;4926010;29;20066;-57
2021/06/04 00:52:42;;;;;;;9.80;6.85;;;;;;;;;;4910261;29;20452;-59
2021/06/04 00:55:14;;;;;;;12.77;7.55;;;;;;;;;;4905524;29;20062;-58
2021/06/04 00:57:43;;;;;;;11.95;7.10;;;;;;;;;;4908825;29;20087;-58
2021/06/04 01:00:13;;;;;;;9.80;7.28;;;;;;;;;;4899834;29;20496;-57
2021/06/04 01:02:43;;;;;;;9.10;6.38;;;;;;;;;;4914582;29;20051;-57
2021/06/04 01:05:11;;;;;;;14.30;6.60;;;;;;;;;;4909621;29;20083;-60
2021/06/04 01:07:47;;;;;;;8.35;6.75;;;;;;;;;;4907880;29;20138;-58
2021/06/04 01:10:34;;;;;;;9.15;6.72;;;;;;;;;;4913232;29;20524;-56
2021/06/04 01:13:25;;;;;;;13.93;6.82;;;;;;;;;;4923548;29;20080;-58
2021/06/04 01:16:02;;;;;;;9.43;7.07;;;;;;;;;;4908214;29;20048;-58
2021/06/04 01:18:41;;;;;;;18.52;8.13;;;;;;;;;;4929614;29;20417;-57
2021/06/04 01:21:14;;;;;;;11.15;7.50;;;;;;;;;;4925226;29;20622;-58
2021/06/04 01:24:00;;;;;;;12.48;7.50;;;;;;;;;;4925919;29;20714;-58
2021/06/04 01:26:30;;;;;;;13.45;7.43;;;;;;;;;;4924808;29;20088;-58
2021/06/04 01:29:02;;;;;;;14.10;6.95;;;;;;;;;;4926782;29;20417;-57
2021/06/04 01:31:35;;;;;;;12.73;8.02;;;;;;;;;;4921554;29;20560;-58
2021/06/04 01:34:22;;;;;;;16.77;7.03;;;;;;;;;;4923398;29;20056;-57
2021/06/04 01:37:04;;;;;;;14.13;7.72;;;;;;;;;;4924497;29;20130;-58
2021/06/04 01:39:46;;;;;;;10.18;7.43;;;;;;;;;;4904038;29;20056;-58
2021/06/04 01:42:17;;;;;;;12.73;8.68;;;;;;;;;;4922195;29;20424;-57
2021/06/04 01:44:50;;;;;;;10.20;6.90;;;;;;;;;;4927699;29;20051;-58
2021/06/04 01:47:22;;;;;;;10.30;7.40;;;;;;;;;;4921957;29;20040;-58
2021/06/04 01:49:53;;;;;;;14.23;8.10;;;;;;;;;;4926454;29;20056;-57
2021/06/04 01:52:25;;;;;;;10.20;7.65;;;;;;;;;;4927817;29;20044;-58
2021/06/04 01:55:03;;;;;;;13.82;8.30;;;;;;;;;;4909014;29;20654;-58
2021/06/04 01:57:38;;;;;;;11.18;8.38;;;;;;;;;;4901922;29;20051;-58
2021/06/04 02:00:12;;;;;;;12.07;8.63;;;;;;;;;;4906854;29;20048;-57
2021/06/04 02:02:43;;;;;;;13.30;8.43;;;;;;;;;;4920245;29;20046;-55
2021/06/04 02:05:19;;;;;;;12.20;8.60;;;;;;;;;;4905540;29;20055;-57
2021/06/04 02:07:46;;;;;;;12.65;8.48;;;;;;;;;;4919874;29;20181;-57
2021/06/04 02:10:18;;;;;;;11.70;9.40;;;;;;;;;;4913015;29;20052;-57
2021/06/04 02:12:46;;;;;;;18.13;8.85;;;;;;;;;;4904932;29;20421;-58
2021/06/04 02:15:34;;;;;;;12.43;8.75;;;;;;;;;;4907304;29;20060;-58
2021/06/04 02:18:20;;;;;;;10.23;8.38;;;;;;;;;;4911137;29;20401;-57
2021/06/04 02:21:01;;;;;;;11.73;9.73;;;;;;;;;;4902292;29;20498;-58
2021/06/04 02:23:41;;;;;;;14.25;8.93;;;;;;;;;;4910777;29;20052;-58
2021/06/04 02:26:17;;;;;;;11.77;8.25;;;;;;;;;;4931093;29;20051;-58
2021/06/04 02:28:46;;;;;;;11.27;8.75;;;;;;;;;;4914580;29;20296;-57
2021/06/04 02:31:23;;;;;;;14.02;8.45;;;;;;;;;;4913346;29;20051;-57
2021/06/04 02:34:11;;;;;;;11.85;8.70;;;;;;;;;;4913937;29;20063;-58
2021/06/04 02:36:43;;;;;;;12.82;8.98;;;;;;;;;;4928255;29;20436;-57
2021/06/04 02:39:11;;;;;;;12.52;8.20;;;;;;;;;;4926004;29;20551;-58
2021/06/04 02:41:41;;;;;;;12.50;8.70;;;;;;;;;;4912601;29;20039;-57
2021/06/04 02:44:10;;;;;;;14.50;9.32;;;;;;;;;;4907801;29;20055;-57
2021/06/04 02:46:40;;;;;;;11.23;8.55;;;;;;;;;;4930662;29;20066;-58
2021/06/04 02:49:10;;;;;;;11.48;8.73;;;;;;;;;;4926665;29;20099;-57
2021/06/04 02:51:41;;;;;;;13.43;9.35;;;;;;;;;;4917073;29;21053;-56
2021/06/04 02:54:15;;;;;;;15.77;8.98;;;;;;;;;;4923950;29;20056;-55
2021/06/04 02:56:47;;;;;;;13.98;9.48;;;;;;;;;;4907089;29;20045;-57
2021/06/04 02:59:17;;;;;;;12.10;9.18;;;;;;;;;;4908136;29;20036;-57
2021/06/04 03:01:53;;;;;;;9.82;8.73;;;;;;;;;;4924688;29;20130;-58
2021/06/04 03:04:26;;;;;;;14.93;9.05;;;;;;;;;;4924334;29;20047;-57
2021/06/04 03:06:58;;;;;;;14.90;9.55;;;;;;;;;;4927403;29;20127;-56
2021/06/04 03:09:38;;;;;;;10.60;9.32;;;;;;;;;;4906247;29;20151;-55
2021/06/04 03:12:16;;;;;;;13.35;10.15;;;;;;;;;;4920039;29;20444;-58
2021/06/04 03:14:47;;;;;;;16.50;10.32;;;;;;;;;;4926588;29;20083;-58
2021/06/04 03:17:16;;;;;;;12.25;9.35;;;;;;;;;;4916694;29;20042;-56
2021/06/04 03:19:43;;;;;;;10.18;8.25;;;;;;;;;;4913790;29;20086;-56
2021/06/04 03:22:18;;;;;;;10.73;8.50;;;;;;;;;;4923214;29;20055;-56
2021/06/04 03:24:45;;;;;;;11.25;8.45;;;;;;;;;;4913616;29;20463;-58
2021/06/04 03:27:15;;;;;;;13.88;9.13;;;;;;;;;;4927176;29;20043;-57
2021/06/04 03:29:46;;;;;;;11.43;9.50;;;;;;;;;;4908144;29;20052;-58
2021/06/04 03:32:14;;;;;;;11.32;8.63;;;;;;;;;;4912585;29;20536;-57
2021/06/04 03:34:43;;;;;;;14.55;9.18;;;;;;;;;;4911661;29;20123;-57
2021/06/04 03:37:10;;;;;;;10.90;8.65;;;;;;;;;;4926495;29;20040;-58
2021/06/04 03:39:38;;;;;;;;;;;;;;;;;;4923121;29;20146;-57
2021/06/04 03:42:07;;;;;;;17.50;9.23;;;;;;;;;;4908253;29;19923;-56
2021/06/04 03:44:35;;;;;;;11.02;9.40;;;;;;;;;;4928690;29;20118;-57
2021/06/04 03:47:03;;;;;;;13.40;8.73;;;;;;;;;;4926820;29;20052;-57
2021/06/04 03:49:33;;;;;;;13.38;8.52;;;;;;;;;;4928420;29;20230;-56
2021/06/04 03:52:00;;;;;;;11.30;8.80;;;;;;;;;;4929158;29;20048;-58
2021/06/04 03:54:30;;;;;;;9.90;8.27;;;;;;;;;;4927705;29;20098;-58
2021/06/04 03:56:57;;;;;;;10.00;8.30;;;;;;;;;;4925536;29;20040;-57
2021/06/04 03:59:25;;;;;;;9.90;7.60;;;;;;;;;;4927076;29;20647;-56
2021/06/04 04:01:56;;;;;;;11.82;7.55;;;;;;;;;;4922411;29;20107;-58
2021/06/04 04:04:23;;;;;;;8.80;7.80;;;;;;;;;;4926675;29;20162;-57
2021/06/04 04:06:50;;;;;;;7.93;7.00;;;;;;;;;;4930303;29;20071;-58
2021/06/04 04:09:17;;;;;;;10.80;6.60;;;;;;;;;;4925843;29;20118;-55
2021/06/04 04:11:45;;;;;;;11.73;6.38;;;;;;;;;;4908148;29;20048;-57
2021/06/04 04:14:12;;;;;;;8.02;6.35;;;;;;;;;;4927585;29;20094;-56
2021/06/04 04:16:39;;;;;;;8.57;6.57;;;;;;;;;;4920383;29;20080;-58
2021/06/04 04:19:05;;;;;;;10.67;6.20;;;;;;;;;;4920452;29;20404;-58
2021/06/04 04:21:32;;;;;;;10.37;7.90;;;;;;;;;;4925121;29;20131;-58
2021/06/04 04:24:03;;;;;;;12.00;7.80;;;;;;;;;;4925811;29;20484;-58
2021/06/04 04:26:32;;;;;;;10.70;7.32;;;;;;;;;;4931074;29;20063;-57
2021/06/04 04:28:59;;;;;;;9.18;7.18;;;;;;;;;;4920272;29;20508;-58
2021/06/04 04:31:27;;;;;;;9.07;6.47;;;;;;;;;;4922053;29;20062;-58
2021/06/04 04:33:55;;;;;;;9.85;6.85;;;;;;;;;;4920172;29;20048;-58
2021/06/04 04:36:22;;;;;;;;;;;;;;;;;;4923262;29;20044;-59
2021/06/04 04:38:48;;;;;;;8.60;6.68;;;;;;;;;;4922418;29;19926;-58
2021/06/04 04:41:15;;;;;;;9.73;6.53;;;;;;;;;;4923418;29;20043;-56
2021/06/04 04:43:45;;;;;;;12.98;7.80;;;;;;;;;;4904632;29;20039;-58
2021/06/04 04:46:13;;;;;;;9.88;6.63;;;;;;;;;;4926547;29;20118;-57
2021/06/04 04:48:40;;;;;;;;;;;;;;;;;;4924383;29;20040;-57
2021/06/04 04:51:07;;;;;;;9.70;7.40;;;;;;;;;;4926100;29;19969;-58
2021/06/04 04:53:34;;;;;;;9.43;7.30;;;;;;;;;;4925433;29;20135;-57
2021/06/04 04:56:01;;;;;;;11.77;7.35;;;;;;;;;;4922378;29;20039;-58
2021/06/04 04:58:29;;;;;;;10.57;6.72;;;;;;;;;;4922885;29;20074;-58
2021/06/04 05:00:57;;;;;;;11.23;7.30;;;;;;;;;;4921019;29;20048;-57
2021/06/04 05:03:24;;;;;;;11.00;7.47;;;;;;;;;;4920804;29;20119;-57
2021/06/04 05:05:52;;;;;;;7.97;6.43;;;;;;;;;;4923939;29;20058;-58
2021/06/04 05:08:18;;;;;;;10.30;6.57;;;;;;;;;;4922359;29;20044;-56
2021/06/04 05:10:45;;;;;;;8.02;6.63;;;;;;;;;;4923257;29;20051;-57
2021/06/04 05:13:14;;;;;;;11.43;6.88;;;;;;;;;;4925070;29;20458;-57
2021/06/04 05:15:42;;;;;;;7.60;6.18;;;;;;;;;;4921701;29;20079;-58
2021/06/04 05:18:09;;;;;;;9.13;6.20;;;;;;;;;;4923551;29;20058;-58
2021/06/04 05:20:36;;;;;;;;;;;;;;;;;;4922309;29;20043;-58
2021/06/04 05:23:03;;;;;;;10.23;6.53;;;;;;;;;;4923843;29;20288;-55
2021/06/04 05:25:32;;;;;;;7.72;5.22;;;;;;;;;;4931446;29;20095;-58
2021/06/04 05:28:00;;;;;;;12.07;5.70;;;;;;;;;;4923732;29;20060;-57
2021/06/04 05:30:28;;;;;;;10.50;5.28;;;;;;;;;;4921863;29;20051;-57
2021/06/04 05:32:54;;;;;;;5.75;4.68;;;;;;;;;;4927861;29;20400;-57
2021/06/04 05:35:22;;;;;;;;;;;;;;;;;;4925145;29;20091;-57
2021/06/04 05:37:49;;;;;;;12.57;5.55;;;;;;;;;;4927879;29;19998;-59
2021/06/04 05:40:17;;;;;;;20.63;5.87;;;;;;;;;;4924563;29;20127;-57
2021/06/04 05:42:47;;;;;;;10.30;5.95;;;;;;;;;;4923768;29;20052;-57
2021/06/04 05:45:17;;;;;;;11.30;4.78;;;;;;;;;;4925967;29;20051;-58
2021/06/04 05:47:45;;;;;;;6.28;4.22;;;;;;;;;;4925814;29;20047;-58
2021/06/04 05:50:14;;;;;;;6.90;4.85;;;;;;;;;;4922870;29;20103;-58
2021/06/04 05:52:41;;;;;;;6.32;4.60;;;;;;;;;;4925669;29;20044;-57
2021/06/04 05:55:10;;;;;;;9.48;4.80;;;;;;;;;;4924583;29;20052;-58
2021/06/04 05:57:37;;;;;;;6.50;4.28;;;;;;;;;;4927103;29;20044;-58
2021/06/04 06:00:09;;;;;;;7.43;4.20;;;;;;;;;;4912306;29;20051;-58
2021/06/04 06:02:38;;;;;;;5.95;4.25;;;;;;;;;;4925522;29;20307;-56
2021/06/04 06:05:06;;;;;;;11.38;4.07;;;;;;;;;;4932450;29;20143;-58
2021/06/04 06:07:32;;;;;;;7.97;4.07;;;;;;;;;;4925244;29;20054;-58
2021/06/04 06:09:59;;;;;;;7.10;3.90;;;;;;;;;;4924836;29;20055;-58
2021/06/04 06:12:26;;;;;;;7.07;4.32;;;;;;;;;;4923851;29;20040;-59
2021/06/04 06:14:53;;;;;;;9.63;4.20;;;;;;;;;;4917211;29;20108;-56
2021/06/04 06:17:19;;;;;;;9.02;3.75;;;;;;;;;;4924162;29;20400;-57
2021/06/04 06:19:46;;;;;;;7.13;4.13;;;;;;;;;;4926857;29;20060;-58
2021/06/04 06:22:14;;;;;;;8.63;4.00;;;;;;;;;;4925314;29;20048;-58
2021/06/04 06:24:40;;;;;;;5.68;3.95;;;;;;;;;;4928042;29;20070;-58
2021/06/04 06:27:07;;;;;;;11.40;4.03;;;;;;;;;;4931354;29;20543;-58
2021/06/04 06:29:36;;;;;;;4.40;3.60;;;;;;;;;;4926553;29;20043;-58
2021/06/04 06:32:03;;;;;;;6.97;3.80;;;;;;;;;;4934524;29;20502;-58
2021/06/04 06:34:30;;;;;;;7.30;4.05;;;;;;;;;;4925697;29;20059;-57
2021/06/04 06:36:57;;;;;;;8.73;3.97;;;;;;;;;;4929434;29;20420;-58
2021/06/04 06:39:26;;;;;;;7.40;3.83;;;;;;;;;;4928480;29;20052;-58
2021/06/04 06:41:55;;;;;;;6.00;3.60;;;;;;;;;;4926238;29;20107;-58
2021/06/04 06:44:22;;;;;;;11.77;3.70;;;;;;;;;;4932515;29;20404;-58
2021/06/04 06:46:51;;;;;;;9.73;3.88;;;;;;;;;;4930981;29;20097;-58
2021/06/04 06:49:20;;;;;;;7.78;3.53;;;;;;;;;;4927021;29;20099;-58
2021/06/04 06:51:47;;;;;;;9.38;3.92;;;;;;;;;;4926463;29;20058;-58
2021/06/04 06:54:16;;;;;;;6.95;3.35;;;;;;;;;;4930275;29;20044;-57
2021/06/04 06:56:44;;;;;;;4.57;3.78;;;;;;;;;;4927656;29;20066;-59
2021/06/04 06:59:12;;;;;;;7.18;3.85;;;;;;;;;;4921895;29;20064;-58
2021/06/04 07:01:38;;;;;;;6.68;3.80;;;;;;;;;;4910375;29;20627;-58
2021/06/04 07:04:06;;;;;;;5.60;3.58;;;;;;;;;;4927151;29;20048;-57
2021/06/04 07:06:34;;;;;;;5.65;3.45;;;;;;;;;;4923169;29;20633;-59
2021/06/04 07:09:01;;;;;;;6.40;3.30;;;;;;;;;;4921926;29;20047;-59
2021/06/04 07:11:31;;;;;;;10.80;3.53;;;;;;;;;;4922550;29;20051;-57
2021/06/04 07:13:58;;;;;;;5.15;3.10;;;;;;;;;;4922709;29;20044;-59
2021/06/04 07:16:25;;;;;;;8.27;3.28;;;;;;;;;;4926241;29;20040;-58
2021/06/04 07:18:52;;;;;;;6.40;3.00;;;;;;;;;;4926937;29;20671;-58
2021/06/04 07:21:22;;;;;;;5.78;3.08;;;;;;;;;;4923875;29;20099;-58
2021/06/04 07:23:49;;;;;;;7.40;3.47;;;;;;;;;;4928768;29;20059;-58
2021/06/04 07:26:16;;;;;;;10.43;3.63;;;;;;;;;;4927750;29;20043;-59
2021/06/04 07:28:44;;;;;;;5.80;3.13;;;;;;;;;;4908065;29;20571;-58
2021/06/04 07:31:12;;;;;;;8.40;3.60;;;;;;;;;;4923456;29;20047;-58
2021/06/04 07:33:41;;;;;;;7.47;3.65;;;;;;;;;;4929173;29;20079;-58
2021/06/04 07:36:10;;;;;;;5.05;3.28;;;;;;;;;;4932320;29;20044;-58
2021/06/04 07:38:37;;;;;;;7.57;3.42;;;;;;;;;;4926299;29;20094;-58
2021/06/04 07:41:06;;;;;;;6.43;3.30;;;;;;;;;;4923335;29;20114;-59
2021/06/04 07:43:35;;;;;;;8.68;2.80;;;;;;;;;;4927140;29;20055;-59
2021/06/04 07:46:04;;;;;;;5.40;2.97;;;;;;;;;;4923923;29;20130;-59
2021/06/04 07:48:32;;;;;;;9.40;3.00;;;;;;;;;;4925494;29;20096;-59
2021/06/04 07:50:59;;;;;;;16.00;2.73;;;;;;;;;;4920649;29;20059;-57
2021/06/04 07:53:27;;;;;;;5.05;2.40;;;;;;;;;;4928789;29;20295;-57
2021/06/04 07:55:54;;;;;;;6.88;2.65;;;;;;;;;;4927936;29;20103;-58
2021/06/04 07:58:21;;;;;;;4.93;2.50;;;;;;;;;;4927707;29;20098;-59
2021/06/04 08:00:48;;;;;;;5.57;2.23;;;;;;;;;;4923612;29;20512;-58
2021/06/04 08:03:18;;;;;;;4.18;2.47;;;;;;;;;;4920957;29;20343;-59
2021/06/04 08:05:45;;;;;;;6.30;2.50;;;;;;;;;;4924548;29;20511;-58
2021/06/04 08:08:12;;;;;;;4.93;2.72;;;;;;;;;;4926498;29;20044;-59
2021/06/04 08:10:40;;;;;;;6.80;2.80;;;;;;;;;;4933029;29;20044;-58
2021/06/04 08:13:08;;;;;;;5.50;2.50;;;;;;;;;;4926210;29;20120;-57
2021/06/04 08:15:38;;;;;;;4.35;2.65;;;;;;;;;;4913550;29;20047;-58
2021/06/04 08:18:07;;;;;;;7.32;2.40;;;;;;;;;;4928062;29;20040;-58
2021/06/04 08:20:35;;;;;;;9.30;2.83;;;;;;;;;;4924399;29;20043;-56
2021/06/04 08:23:03;;;;;;;5.18;2.40;;;;;;;;;;4927502;29;20123;-58
2021/06/04 08:25:32;;;;;;;4.90;2.42;;;;;;;;;;4923918;29;20043;-59
2021/06/04 08:28:03;;;;;;;5.78;2.53;;;;;;;;;;4931800;29;20044;-58
2021/06/04 08:30:30;;;;;;;3.83;2.60;;;;;;;;;;4923820;29;20048;-59
2021/06/04 08:32:58;;;;;;;4.45;2.67;;;;;;;;;;4925098;29;20047;-59
2021/06/04 08:35:28;;;;;;;4.53;2.50;;;;;;;;;;4925538;29;20048;-59
2021/06/04 08:37:55;;;;;;;3.83;2.42;;;;;;;;;;4926005;29;20040;-58
2021/06/04 08:40:22;;;;;;;;;;;;;;;;;;4927712;29;20047;-58
2021/06/04 08:42:54;;;;;;;7.95;2.83;;;;;;;;;;4924992;29;20303;-57
2021/06/04 08:45:28;;;;;;;4.00;2.70;;;;;;;;;;4922042;29;20546;-58
2021/06/04 08:48:02;;;;;;;7.18;2.35;;;;;;;;;;4924486;29;20040;-58
2021/06/04 08:50:47;;;;;;;7.82;2.88;;;;;;;;;;4924649;29;20445;-59
2021/06/04 08:53:19;;;;;;;3.20;2.30;;;;;;;;;;4925214;29;20508;-58
2021/06/04 08:55:55;;;;;;;4.35;2.50;;;;;;;;;;4923830;29;20547;-59
2021/06/04 08:58:26;;;;;;;8.63;3.00;;;;;;;;;;4922194;29;20108;-58
2021/06/04 09:00:57;;;;;;;4.32;2.63;;;;;;;;;;4930165;29;20075;-59
2021/06/04 09:03:30;;;;;;;5.80;2.58;;;;;;;;;;4919640;29;20528;-58
2021/06/04 09:05:59;;;;;;;6.28;2.60;;;;;;;;;;4921236;29;20115;-59
2021/06/04 09:08:32;;;;;;;4.32;2.80;;;;;;;;;;4927171;29;20051;-59
2021/06/04 09:11:12;;;;;;;5.05;2.50;;;;;;;;;;4925148;29;20063;-59
2021/06/04 09:13:40;;;;;;;6.68;2.75;;;;;;;;;;4926032;29;20091;-58
2021/06/04 09:16:28;;;;;;;5.15;2.65;;;;;;;;;;4922662;29;20520;-58
2021/06/04 09:18:57;;;;;;;4.32;2.22;;;;;;;;;;4928296;29;20044;-58
2021/06/04 09:21:26;;;;;;;6.22;2.53;;;;;;;;;;4922149;29;20043;-59
2021/06/04 09:23:52;;;;;;;8.93;2.30;;;;;;;;;;4922551;29;20071;-57
2021/06/04 09:26:21;;;;;;;4.85;2.38;;;;;;;;;;4927431;29;20045;-59
2021/06/04 09:29:08;;;;;;;5.35;2.40;;;;;;;;;;4924212;29;20044;-58
2021/06/04 09:31:45;;;;;;;3.35;2.40;;;;;;;;;;4924500;29;20048;-58
2021/06/04 09:34:18;;;;;;;5.68;2.55;;;;;;;;;;4927924;29;20047;-58
2021/06/04 09:36:49;;;;;;;7.20;2.75;;;;;;;;;;4927614;29;20044;-57
2021/06/04 09:39:21;;;;;;;4.90;2.28;;;;;;;;;;4930998;29;20047;-59
2021/06/04 09:41:49;;;;;;;5.57;2.40;;;;;;;;;;4926922;29;20100;-58
2021/06/04 09:44:16;;;;;;;5.55;2.20;;;;;;;;;;4925711;29;20087;-58
2021/06/04 09:46:54;;;;;;;4.13;2.70;;;;;;;;;;4931467;29;20055;-58
2021/06/04 09:49:26;;;;;;;3.28;2.33;;;;;;;;;;4928399;29;20048;-58
2021/06/04 09:51:57;;;;;;;4.47;2.20;;;;;;;;;;4931739;29;20120;-57
2021/06/04 09:54:28;;;;;;;5.25;2.63;;;;;;;;;;4928111;29;20048;-57
2021/06/04 09:57:16;;;;;;;6.32;2.60;;;;;;;;;;4928339;29;20504;-58
2021/06/04 09:59:43;;;;;;;5.90;2.53;;;;;;;;;;4927380;29;20048;-56
2021/06/04 10:02:28;;;;;;;8.30;2.58;;;;;;;;;;4923761;29;20442;-58
2021/06/04 10:05:09;;;;;;;4.53;2.20;;;;;;;;;;4927855;29;20158;-58
2021/06/04 10:07:36;;;;;;;5.68;2.20;;;;;;;;;;4927478;29;20441;-58
2021/06/04 10:10:09;;;;;;;5.60;2.10;;;;;;;;;;4928928;29;20531;-57
2021/06/04 10:12:38;;;;;;;2.88;2.25;;;;;;;;;;4924209;29;20103;-59
2021/06/04 10:15:15;;;;;;;4.43;2.60;;;;;;;;;;4927471;29;20067;-58
2021/06/04 10:18:05;;;;;;;3.90;2.30;;;;;;;;;;4930202;29;20705;-59
2021/06/04 10:20:44;;;;;;;5.47;2.40;;;;;;;;;;4927457;29;20047;-58
2021/06/04 10:23:23;;;;;;;5.65;2.45;;;;;;;;;;4927918;29;20075;-59
2021/06/04 10:25:56;;;;;;;4.50;2.38;;;;;;;;;;4925747;29;20052;-59
2021/06/04 10:28:31;;;;;;;3.05;2.22;;;;;;;;;;4932284;29;20052;-59
2021/06/04 10:31:18;;;;;;;6.60;2.58;;;;;;;;;;4924552;29;20256;-58
2021/06/04 10:33:54;;;;;;;3.95;2.42;;;;;;;;;;4899755;29;20063;-59
2021/06/04 10:36:24;;;;;;;5.18;2.42;;;;;;;;;;4929265;29;20044;-59
2021/06/04 10:38:53;;;;;;;3.47;2.40;;;;;;;;;;4928602;29;20044;-58
2021/06/04 10:41:28;;;;;;;4.60;2.17;;;;;;;;;;4926964;29;20146;-58
2021/06/04 10:44:01;;;;;;;4.50;2.22;;;;;;;;;;4929731;29;20497;-59
2021/06/04 10:46:28;;;;;;;5.63;2.58;;;;;;;;;;4926744;29;20085;-58
2021/06/04 10:49:00;;;;;;;4.72;2.60;;;;;;;;;;4928465;29;20047;-58
2021/06/04 10:51:27;;;;;;;3.70;2.40;;;;;;;;;;4923544;29;20075;-58
2021/06/04 10:54:05;;;;;;;6.10;2.80;;;;;;;;;;4929071;29;20044;-58
2021/06/04 10:56:42;;;;;;;3.65;2.40;;;;;;;;;;4928436;29;20044;-59
2021/06/04 10:59:29;;;;;;;3.55;2.40;;;;;;;;;;4921224;29;20206;-58
2021/06/04 11:02:01;;;;;;;3.33;2.25;;;;;;;;;;4922330;29;20079;-58
2021/06/04 11:04:36;;;;;;;4.43;1.88;;;;;;;;;;4925258;29;20739;-58
2021/06/04 11:07:04;;;;;;;5.95;2.30;;;;;;;;;;4906708;29;20071;-58
2021/06/04 11:09:41;;;;;;;4.33;2.10;;;;;;;;;;4925782;29;20456;-58
2021/06/04 11:12:26;;;;;;;6.93;2.50;;;;;;;;;;4927973;29;20063;-58
2021/06/04 11:14:59;;;;;;;6.32;2.63;;;;;;;;;;4924676;29;20127;-57
2021/06/04 11:17:47;;;;;;;4.53;2.15;;;;;;;;;;4929997;29;20513;-58
2021/06/04 11:20:21;;;;;;;4.43;2.30;;;;;;;;;;4927789;29;20412;-59
2021/06/04 11:23:02;;;;;;;7.65;2.88;;;;;;;;;;4926084;29;20044;-56
2021/06/04 11:25:38;;;;;;;5.68;2.30;;;;;;;;;;4925964;29;20052;-58
2021/06/04 11:28:09;;;;;;;7.40;2.58;;;;;;;;;;4927849;29;20040;-58
2021/06/04 11:30:37;;;;;;;4.35;2.50;;;;;;;;;;4926488;29;20039;-58
2021/06/04 11:33:15;;;;;;;2.55;2.30;;;;;;;;;;4914213;29;20440;-59
2021/06/04 11:35:48;;;;;;;5.68;2.38;;;;;;;;;;4924402;29;20040;-58
2021/06/04 11:38:20;;;;;;;7.18;2.35;;;;;;;;;;4926467;29;20063;-58
2021/06/04 11:40:52;;;;;;;4.22;2.05;;;;;;;;;;4924820;29;20051;-59
2021/06/04 11:43:30;;;;;;;4.10;2.25;;;;;;;;;;4927001;29;20051;-59
2021/06/04 11:46:10;;;;;;;5.10;2.25;;;;;;;;;;4923801;29;20115;-59
2021/06/04 11:48:39;;;;;;;3.90;1.92;;;;;;;;;;4927923;29;20601;-59
2021/06/04 11:51:17;;;;;;;7.95;2.28;;;;;;;;;;4923185;29;20050;-59
2021/06/04 11:53:48;;;;;;;6.97;2.13;;;;;;;;;;4921072;29;20094;-59
2021/06/04 11:56:53;;;;;;;8.85;2.30;;;;;;;;;;4928946;29;20069;-59
2021/06/04 11:59:41;;;;;;;3.28;2.20;;;;;;;;;;4853140;29;20050;-58
2021/06/04 12:02:09;;;;;;;4.50;2.10;;;;;;;;;;4846941;29;20066;-59
2021/06/04 12:04:56;;;;;;;4.20;2.58;;;;;;;;;;4899042;29;20181;-59
2021/06/04 12:07:34;;;;;;;7.50;2.50;;;;;;;;;;4922528;29;20040;-59
2021/06/04 12:10:02;;;;;;;6.22;2.30;;;;;;;;;;4929187;29;20099;-59
2021/06/04 12:12:30;;;;;;;3.95;2.28;;;;;;;;;;4923491;29;20054;-59
2021/06/04 12:14:56;;;;;;;4.20;2.25;;;;;;;;;;4929168;29;20050;-59
2021/06/04 12:17:31;;;;;;;3.75;2.10;;;;;;;;;;4925344;29;20043;-59
2021/06/04 12:20:16;;;;;;;4.55;2.35;;;;;;;;;;4923265;29;20040;-59
2021/06/04 12:22:46;;;;;;;5.40;2.40;;;;;;;;;;4923618;29;20405;-59
2021/06/04 12:25:33;;;;;;;3.50;2.00;;;;;;;;;;4925530;29;20048;-59
2021/06/04 12:28:03;;;;;;;8.05;2.30;;;;;;;;;;4921638;29;20040;-59
2021/06/04 12:31:03;;;;;;;6.35;2.33;;;;;;;;;;4925547;29;20048;-58
2021/06/04 12:33:33;;;;;;;4.53;2.28;;;;;;;;;;4883508;29;20059;-59
2021/06/04 12:36:00;;;;;;;8.23;2.20;;;;;;;;;;4925477;29;20060;-59
2021/06/04 12:38:30;;;;;;;5.00;2.20;;;;;;;;;;4922759;29;20127;-59
2021/06/04 12:40:56;;;;;;;7.22;2.70;;;;;;;;;;4923006;29;20040;-59
2021/06/04 12:43:24;;;;;;;3.80;2.40;;;;;;;;;;4919666;29;20043;-59
2021/06/04 12:46:02;;;;;;;3.97;2.38;;;;;;;;;;4922432;29;20054;-59
2021/06/04 12:48:29;;;;;;;5.13;2.42;;;;;;;;;;4923309;29;20059;-59
2021/06/04 12:50:56;;;;;;;6.57;2.50;;;;;;;;;;4919355;29;20052;-59
2021/06/04 12:53:28;;;;;;;6.03;2.40;;;;;;;;;;4919669;29;20052;-59
2021/06/04 12:55:58;;;;;;;7.65;2.28;;;;;;;;;;4922272;29;20143;-59
2021/06/04 12:58:28;;;;;;;5.97;2.40;;;;;;;;;;4917392;29;20040;-59
2021/06/04 13:01:10;;;;;;;5.50;2.10;;;;;;;;;;4923005;29;20705;-59
2021/06/04 13:03:40;;;;;;;9.18;2.47;;;;;;;;;;4908116;29;20112;-59
2021/06/04 13:06:12;;;;;;;4.93;2.42;;;;;;;;;;4907750;29;20404;-59
2021/06/04 13:08:46;;;;;;;4.28;2.35;;;;;;;;;;4909617;29;20044;-59
2021/06/04 13:11:14;;;;;;;8.02;2.42;;;;;;;;;;4903911;29;20111;-59
2021/06/04 13:13:43;;;;;;;4.45;2.28;;;;;;;;;;4898010;29;20052;-59
2021/06/04 13:16:20;;;;;;;4.55;2.67;;;;;;;;;;4907291;29;20052;-59
2021/06/04 13:18:50;;;;;;;6.18;2.58;;;;;;;;;;4908820;29;20040;-59
2021/06/04 13:21:31;;;;;;;7.80;2.50;;;;;;;;;;4904310;29;20044;-59
2021/06/04 13:24:04;;;;;;;6.13;2.65;;;;;;;;;;4907905;29;20040;-59
2021/06/04 13:26:35;;;;;;;6.70;2.47;;;;;;;;;;4903735;29;20048;-59
2021/06/04 13:29:05;;;;;;;4.43;2.58;;;;;;;;;;4907502;29;20070;-59
2021/06/04 13:31:36;;;;;;;5.82;2.40;;;;;;;;;;4903331;29;20118;-59
2021/06/04 13:34:13;;;;;;;4.85;2.40;;;;;;;;;;4909530;29;20526;-59
2021/06/04 13:36:40;;;;;;;5.35;2.70;;;;;;;;;;4905825;29;20119;-59
2021/06/04 13:39:07;;;;;;;7.28;2.53;;;;;;;;;;4907102;29;20045;-60
2021/06/04 13:41:37;;;;;;;11.20;2.40;;;;;;;;;;4903339;29;20056;-59
2021/06/04 13:44:07;;;;;;;4.40;2.60;;;;;;;;;;4907614;29;20059;-59
2021/06/04 13:46:33;;;;;;;2.55;2.30;;;;;;;;;;4909515;29;20044;-59
2021/06/04 13:49:23;;;;;;;5.82;2.70;;;;;;;;;;4901923;29;20051;-59
2021/06/04 13:51:59;;;;;;;5.75;2.75;;;;;;;;;;4897641;29;20103;-59
2021/06/04 13:54:31;;;;;;;6.93;2.80;;;;;;;;;;4910948;29;20048;-59
2021/06/04 13:57:09;;;;;;;5.50;2.40;;;;;;;;;;4901806;29;20055;-58
2021/06/04 13:59:36;;;;;;;6.05;2.50;;;;;;;;;;4905957;29;20048;-59
2021/06/04 14:02:18;;;;;;;6.55;2.63;;;;;;;;;;4916287;29;20090;-59
2021/06/04 14:04:46;;;;;;;3.53;2.50;;;;;;;;;;4928135;29;20067;-59
2021/06/04 14:07:25;;;;;;;5.85;2.53;;;;;;;;;;4924165;29;20054;-59
2021/06/04 14:09:53;;;;;;;5.95;2.40;;;;;;;;;;4924353;29;20051;-60
2021/06/04 14:12:26;;;;;;;6.85;2.58;;;;;;;;;;4923725;29;20513;-59
2021/06/04 14:15:25;;;;;;;5.60;2.30;;;;;;;;;;4926895;29;20051;-59
2021/06/04 14:17:52;;;;;;;5.55;2.40;;;;;;;;;;4924586;29;20103;-59
2021/06/04 14:20:20;;;;;;;;;;;;;;;;;;4925416;29;20424;-59
2021/06/04 14:22:48;;;;;;;4.00;2.38;;;;;;;;;;4927073;29;19930;-58
2021/06/04 14:25:15;;;;;;;3.38;2.65;;;;;;;;;;4930318;29;20044;-59
2021/06/04 14:27:54;;;;;;;6.13;3.00;;;;;;;;;;4923699;29;20063;-59
2021/06/04 14:30:22;;;;;;;4.65;2.30;;;;;;;;;;4928879;29;20035;-59
2021/06/04 14:33:21;;;;;;;5.47;2.63;;;;;;;;;;4931861;29;20396;-59
2021/06/04 14:35:51;;;;;;;3.35;2.67;;;;;;;;;;4897885;29;20492;-59
2021/06/04 14:38:27;;;;;;;6.10;2.55;;;;;;;;;;4921451;29;20055;-59
2021/06/04 14:40:54;;;;;;;4.63;2.67;;;;;;;;;;4930663;29;20087;-58
2021/06/04 14:43:21;;;;;;;5.20;2.55;;;;;;;;;;4908083;29;20040;-59
2021/06/04 14:45:47;;;;;;;5.50;2.58;;;;;;;;;;4926029;29;20048;-59
2021/06/04 14:48:24;;;;;;;4.15;2.33;;;;;;;;;;4925004;29;20052;-59
2021/06/04 14:50:52;;;;;;;4.72;2.30;;;;;;;;;;4933909;29;20079;-59
2021/06/04 14:53:19;;;;;;;6.35;2.47;;;;;;;;;;4924091;29;20128;-59
2021/06/04 14:55:46;;;;;;;3.88;2.40;;;;;;;;;;4928044;29;20079;-59
2021/06/04 14:58:14;;;;;;;6.93;2.60;;;;;;;;;;4921208;29;20519;-59
2021/06/04 15:00:41;;;;;;;9.85;2.97;;;;;;;;;;4923368;29;20055;-59
2021/06/04 15:03:08;;;;;;;5.82;2.80;;;;;;;;;;4926265;29;20531;-59
2021/06/04 15:05:38;;;;;;;9.98;2.75;;;;;;;;;;4926492;29;20504;-59